Date,TemperatureHighC,TemperatureAvgC,TemperatureLowC,DewpointHighC,DewpointAvgC,DewpointLowC,HumidityHigh,HumidityAvg,HumidityLow,PressureMaxhPa,PressureMinhPa,WindSpeedMaxKMH,WindSpeedAvgKMH,GustSpeedMaxKMH,PrecipitationSumCM
2020-1-1,4.6,1.8,-0.9,4.2,1.4,-1.5,98,98,97,1030.6,1028.3,2.1,1.4,9,0.3
2020-1-2,9.1,8.7,7.2,8.3,7.6,6.9,98,94.6,92,1025.6,1022.3,4,1.8,11.9,2.6
2020-1-3,11.6,9.5,8,9.2,7.6,6,94,90.7,85,1031.2,1020.1,5,2.3,16.9,0.4
2020-1-4,9.3,5.8,1.2,5.7,3.7,0.4,97,89.6,79,1036.1,1031.4,4,1.2,11.1,0.1
2020-1-5,8.8,7,3.7,6.2,4.5,1.2,95,88,76,1036.1,1031.3,2.1,1.3,10.1,0.0
2020-1-6,7.6,3.4,-0.8,5.7,1.6,-1.6,97,91,76,1031.2,1021.5,10.1,1.8,20.9,0.5
2020-1-7,10,7.4,4.1,9.2,6.5,3.1,97,95.5,94,1029.0,1025.3,2.1,1.3,11.9,0.1
2020-1-8,12.2,11.5,10.2,10.8,10.2,9.4,96,93.7,93,1026.2,1022.2,4,2,15.1,0.0
2020-1-9,11.8,11.2,10.1,10.3,9.5,7.8,94,92,89,1022.2,1009.2,5,3.6,27,2.5
2020-1-10,10,7.8,4.6,8,6,3.2,95,91.1,84,1032.3,1009.0,5,2.2,18,3.6
2020-1-11,8.1,3.9,1.3,3.1,1.7,0.3,97,89.6,71,1033.0,1027.8,7.9,1.8,15.1,0.0
2020-1-12,8.7,6.4,1.5,7.1,4.6,0.3,95,91.2,86,1027.6,1024.0,5,2.4,23,0.0
2020-1-13,9.8,8.4,6.3,8,6.7,4.6,95,91.7,76,1024.1,1008.6,5,2.9,23,0.3
2020-1-14,11.9,10.2,9,7.7,5.4,3.5,88,77,69,1011.0,1005.9,7.9,5,33.8,0.1
2020-1-15,12.7,9.8,4.8,9.1,6,3.8,95,82.2,70,1022.7,1009.9,6.1,3,29.9,0.6
2020-1-16,14.3,7.5,1.7,8.4,4.9,0.9,97,87.4,70,1023.5,1016.2,11.1,2.5,20.9,0.1
2020-1-17,11.6,8.5,3,8.1,5.4,1.6,94,85.4,67,1023.6,1014.0,6.1,2.7,23,4.0
2020-1-18,9.6,4.2,0.8,4.5,1.9,-0.2,96,88.5,75,1031.4,1023.6,4,1.5,15.1,0.0
2020-1-19,7.3,3.5,-0.5,2.7,0.7,-1.3,97,86.5,70,1044.3,1031.5,11.1,3.8,24.1,0.1
2020-1-20,7.1,3.7,0.8,1.2,0.5,-0.7,94,84.2,68,1045.7,1042.2,7.9,3.5,25.9,0.0
2020-1-21,5.9,0.8,-2.3,0.7,-1.4,-3.1,97,89.3,68,1042.1,1036.8,7.9,1.9,15.8,0.0
2020-1-22,5.6,0,-3.5,0.4,-2.3,-4.3,97,88.9,70,1037.1,1031.8,11.1,2.2,19.2,0.1
2020-1-23,4.6,0.7,-1.7,0.4,-1.3,-2.7,96,89.8,78,1032.3,1023.6,7.9,2.5,15.8,0.0
2020-1-24,5.6,0.6,-2.4,1,-1.3,-3.2,97,90.9,76,1023.7,1020.7,4,1.4,7.9,0.0
2020-1-25,5.7,1,-2.5,3.7,0.1,-3.3,98,95.2,90,1021.3,1016.3,4,1.3,7.9,0.0
2020-1-26,8.5,4.4,-0.1,7,3.4,-0.7,98,95.1,90,1016.2,1012.9,4,1.6,19.2,0.9
2020-1-27,8.9,8.5,7.6,7.6,7,5.6,94,92.4,89,1012.8,999.5,6.1,3.9,24.8,6.7
2020-1-28,8.2,6.6,4.6,6.3,2.9,0.6,93,82.1,70,1006.8,995.9,6.1,3.9,33.8,2.3
2020-1-29,10.1,6.4,3.4,4.8,3.4,2.1,95,85.5,73,1016.3,1007.1,4,2.3,20.9,0.0
2020-1-30,13.1,7.8,1.7,11.5,6.7,0.8,97,94.1,90,1015.8,1006.3,5,2.5,23,2.7
2020-1-31,13.4,12.1,11.2,10.7,10.2,9.9,94,90.6,85,1014.1,1009.9,4,3,20.9,0.3
2020-2-1,14.2,12.4,11,11.3,10.2,8.5,94,89.3,78,1014.9,1005.4,9,3.5,29.9,10.8
2020-2-2,15.4,13,10.9,13,11.4,9.5,95,92.3,88,1015.7,1008.7,5,3.2,19.2,10.8
2020-2-3,12.1,10.1,7.2,11.3,9,6,96,94.4,92,1015.9,1011.2,9,4.3,24.1,11.5
2020-2-4,9.7,7.1,5,5.4,3.4,1.3,94,82.5,62,1030.5,1014.1,9,3.4,24.8,0.7
2020-2-5,9.5,6.4,2.1,4.9,3.1,0.7,93,83.7,69,1036.2,1030.7,5,1.6,14,0.0
2020-2-6,10.9,4.4,-0.7,3.5,-0.7,-3.7,97,76,37,1033.9,1025.1,6.1,2,19.2,0.0
2020-2-7,11.1,4.9,-1.1,5.5,1.1,-2.8,93,81.5,61,1025.1,1019.0,4,1.7,15.1,0.0
2020-2-8,10.3,8.7,6.1,7.7,6.2,4.3,94,87.8,81,1021.0,1018.0,4,2,15.8,1.5
2020-2-9,13.4,10,7,11.2,7.7,5.4,95,88.8,77,1019.3,999.7,10.1,6,41,2.8
2020-2-10,13.6,10.5,7.3,10.7,5.5,2.9,91,76.5,61,1012.2,999.7,9,5.1,39.9,7.1
2020-2-11,9.7,6.6,4.3,3.7,2.2,0.7,87,78.9,60,1018.3,1009.1,6.1,3.6,36,0.8
2020-2-12,10.2,6.1,2.9,3.6,2,0.5,91,80.3,60,1019.6,1015.9,5,2.3,18,0.0
2020-2-13,12.7,8.4,4.6,7.1,4.5,2.5,92,81,59,1015.9,998.6,11.1,3.7,38.1,3.6
2020-2-14,11.7,9.3,7,6.1,5.6,4.6,89,82.2,70,1022.7,1012.5,4,2,14,0.0
2020-2-15,13.5,9.8,5.1,8.1,6.3,3.5,93,83.4,72,1021.7,1012.2,6.1,3.1,24.8,0.8
2020-2-16,17.7,13.7,8.6,11.2,8.7,6.9,92,76.5,68,1012.9,1005.1,9,5.6,48.9,5.3
2020-2-17,8.5,8.1,5.8,6.9,6.2,2.5,93,90.7,83,1023.7,1013.2,5,2.8,14,1.0
2020-2-18,11,7.2,3.1,4.6,3.1,1.6,93,80.2,64,1027.4,1021.0,6.1,3.4,29.1,0.0
2020-2-19,10.2,7.1,4.3,6.3,4.7,3,94,88.4,70,1025.4,1019.6,10.1,2.5,24.1,7.6
2020-2-20,11,8.1,4,7.9,5.7,2.7,94,88.4,79,1024.7,1014.6,10.1,3.8,20.1,3.0
2020-2-21,10.3,5.6,0.8,4.7,2,-0.2,97,82.7,62,1030.5,1025.1,9,3.3,24.8,0.0
2020-2-22,13.1,9.1,4.4,8.3,5.2,1.9,89,81.5,72,1028.1,1024.0,6.1,3.3,23,0.0
2020-2-23,12.6,11,9.3,10.4,8.9,7.6,94,89.9,86,1027.4,1022.4,6.1,3.7,23,0.5
2020-2-24,12.7,11.3,9.6,10,8.6,6.8,94,87.2,76,1025.4,1010.5,6.1,4,25.9,0.2
2020-2-25,11,8.1,4.4,8,5.1,1,94,85.4,66,1010.5,1001.0,6.1,3.5,28,7.1
2020-2-26,8.2,4.6,1.9,3.2,1.1,-0.1,93,82.9,68,1011.2,1000.7,6.1,3.1,24.1,1.3
2020-2-27,11.7,5.2,1.3,9.5,2.4,-0.3,96,86.6,70,1016.3,988.8,18,4.1,30.9,10.4
2020-2-28,10.8,4.9,-0.7,8.9,2.9,-1.7,96,90.1,75,1017.6,1004.7,5,2.8,28,0.5
2020-2-29,12.6,9.2,6.1,8.7,5.5,2.2,91,82.2,61,1004.4,989.8,9,4.4,34.9,3.3
2020-3-1,8.8,5.8,2.1,6.2,3.7,0.7,96,89.8,83,997.8,987.8,13,4.5,38.1,14.8
2020-3-2,9.5,6.4,3.5,7.2,4.4,1.1,94,90.3,82,1001.0,985.7,7.9,2.8,20.9,8.1
2020-3-3,9.5,4.2,0.5,3.9,1.4,-0.6,96,86.2,62,1011.7,1001.0,11.1,2.1,20.9,0.0
2020-3-4,7.9,4.9,0.8,6.9,3.3,-0.4,96,92.4,83,1012.4,1003.2,5,2.1,18,1.4
2020-3-5,11.9,8.8,5.9,9.9,7.4,4.1,96,93,86,1003.0,981.0,9,3.4,33.2,18.3
2020-3-6,10.6,6.8,3.8,4.5,3,0.9,91,81.5,62,1013.5,992.6,6.1,2.6,20.1,0.2
2020-3-7,11.6,7.8,0.6,5.9,3.4,-0.6,96,79.3,62,1020.5,1013.6,4,2.2,15.1,0.0
2020-3-8,11,8.6,5.9,9.1,6.5,4.1,93,89.5,85,1019.2,1010.1,6.1,3.6,29.1,3.3
2020-3-9,11.9,8.2,4.1,6.5,4.3,2.7,94,81.4,60,1018.2,1012.2,10.1,2.8,24.1,1.0
2020-3-10,14.8,12,6.9,11.9,9.9,5.3,94,89.9,85,1016.4,1011.1,6.1,4.1,25.9,2.6
2020-3-11,16.7,14.2,11.8,11,10.1,7.7,91,81.2,70,1017.1,1013.8,6.1,4,28,0.0
2020-3-12,13.6,10.8,6.4,9.9,5.3,0,92,74.2,49,1018.7,1012.0,5,3.1,24.1,2.5
2020-3-13,12.8,7.8,3.1,4.1,1.8,0.3,89,71.6,49,1022.3,1018.8,5,2.1,14,0.0
2020-3-14,11.7,8.6,6.1,8.3,5.6,2.5,92,85.4,76,1019.9,1016.7,5,2.3,15.1,0.9
2020-3-15,16.6,10.5,6.6,7.7,6.1,4.6,92,79,51,1016.7,1008.7,5,2.4,19.2,0.0
2020-3-16,11.5,8.8,5.2,7.7,6.3,3.8,93,87.7,79,1026.3,1011.3,5,1.7,11.1,0.1
2020-3-17,15.6,11.3,8.7,9.1,7.6,6.3,90,82.4,69,1030.5,1026.3,4,2,14,0.0
2020-3-18,18.1,12.4,8.3,10.1,8.3,6.5,92,80.7,55,1029.1,1023.9,4,1.7,9,0.0
2020-3-19,20.3,12.7,4.8,10.1,7.5,3.6,95,76.4,49,1023.9,1019.1,5,2,11.1,0.0
2020-3-20,17.4,12.9,8.9,9.8,8,5.4,84,77,61,1020.6,1019.0,7.9,4.8,25.9,0.0
2020-3-21,8.7,7.8,6.7,5.2,3.9,2,88,81.4,72,1021.6,1017.4,9,5.5,29.9,0.0
2020-3-22,10.9,8.3,5.6,2.5,0.2,-3.9,76,61.5,42,1023.8,1017.4,10.1,6.5,33.2,0.3
2020-3-23,11.4,6.6,1.5,-1.5,-3.8,-5.8,64,50,37,1026.2,1023.8,10.1,4.5,28,0.0
2020-3-24,13.4,6.8,-0.1,-2,-5.2,-6.9,66,42.9,25,1027.0,1023.2,7.9,2.8,20.1,0.0
2020-3-25,12.7,6.8,-0.9,-1.9,-4.7,-6.8,75,45.3,24,1024.2,1018.1,6.1,2.9,20.1,0.0
2020-3-26,11.1,6.9,2.9,-2.9,-5.2,-7.7,66,42.3,33,1018.3,1016.6,7.9,3.9,24.1,0.0
2020-3-27,14.1,7,-0.1,1.7,-0.9,-4.1,84,62.9,41,1018.7,1016.3,6.1,2.3,18,0.0
2020-3-28,17,9.2,1.7,6,2.9,-0.1,92,70.5,49,1024.6,1018.4,7.9,2.9,24.1,0.0
2020-3-29,8.9,6.7,4.7,2.2,-2.8,-6,76,54.6,35,1029.7,1024.8,11.1,7.5,46,0.1
2020-3-30,9.6,5.2,0.5,-1.9,-6.2,-9.2,60,44.6,28,1030.1,1025.1,13,7.5,34.9,0.0
2020-3-31,11.9,7.7,3,1.6,-0.2,-2.2,87,62.9,42,1027.4,1023.9,7.9,4.7,29.9,0.0
2020-4-1,13,7.2,-0.8,-1.4,-2.8,-4.1,85,52.9,31,1024.4,1017.2,6.1,2.4,20.9,0.0
2020-4-2,11.3,6.5,-0.5,1.9,-1.1,-4.1,89,63.7,42,1017.9,1015.6,9,3.1,20.1,0.0
2020-4-3,14.2,9.6,4.8,6.9,4.2,1.3,90,75,52,1020.4,1015.9,9,3.4,15.8,0.0
2020-4-4,17.2,10.1,1.8,6.1,2.7,0.4,94,66.2,38,1021.9,1019.0,7.9,2.8,20.1,0.0
2020-4-5,22.7,12.5,2.8,6.5,3.1,0.3,88,58.2,24,1019.0,1013.7,7.9,3.1,18,0.0
2020-4-6,16.9,12.6,11,10.6,8.9,3.8,92,82.7,43,1026.6,1019.3,5,1.4,15.8,2.8
2020-4-7,22.7,15.6,9.7,11.4,9.2,6.7,94,71.5,37,1028.4,1024.5,7.9,2.1,19.2,0.1
2020-4-8,24.4,15.4,6.4,9.9,7.3,4.7,92,64.3,34,1025.0,1021.5,6.1,1.8,13,0.0
2020-4-9,25.5,16.2,6.2,9.5,6.8,4.4,92,59,27,1023.5,1021.5,6.1,2.2,15.8,0.0
2020-4-10,25.6,21.5,12.1,10,7.7,5.2,78,40.5,26,1023.4,1020.7,6.1,3.4,23,0.0
2020-4-11,25.4,16.7,8.3,10.7,7.7,5,90,60.5,29,1022.4,1020.0,5,1.7,14,0.0
2020-4-12,24.9,16.4,10,13.4,8.4,6.4,86,64.4,32,1020.7,1011.2,5,1.5,11.1,0.3
2020-4-13,17.2,13.1,8,8.9,5.1,-0.8,92,63.5,46,1022.7,1011.6,9,5,43.9,0.1
2020-4-14,13.5,8.9,3.8,0.4,-1.2,-2.9,68,52.2,38,1026.0,1023.0,7.9,4.8,25.9,0.0
2020-4-15,19.1,11.9,5,3.6,0.7,-2,68,48.4,28,1023.1,1016.6,6.1,3.1,20.9,0.0
2020-4-16,23.5,14.9,5.7,11.1,7.4,1.9,88,66.7,42,1016.7,1014.3,4,1.5,18,0.0
2020-4-17,24.1,17.3,10.8,11.7,10.2,9,92,68.8,42,1015.1,1011.8,6.1,1.8,15.8,0.0
2020-4-18,23.4,18.3,13.4,12.7,10.8,9.5,85,66.6,42,1017.1,1012.9,5,1.9,14,0.0
2020-4-19,20.5,16,12.1,11.5,9.8,7.9,91,71.7,49,1016.9,1012.7,7.9,3.5,20.1,0.0
2020-4-20,21.8,16.7,11.7,9.3,7.8,4.6,84,60.5,42,1013.3,1007.9,9,4.3,24.8,0.0
2020-4-21,20.3,15.8,12.1,7.4,4.4,1.5,68,48.8,42,1011.7,1009.1,7.9,3.4,20.1,0.0
2020-4-22,22.3,15.9,8.5,8.4,6,2.9,80,56,36,1016.4,1011.7,7.9,2.5,20.1,0.0
2020-4-23,25.5,16.7,7.1,9.6,7.6,5.3,92,60,29,1018.2,1015.6,6.1,2.3,14,0.0
2020-4-24,24.5,17.3,9.4,13,9.8,6.7,88,66.8,48,1016.4,1011.3,5,1.5,11.1,0.0
2020-4-25,20.8,16,11.1,7.9,5.8,4.5,78,54.5,37,1013.2,1010.1,7.9,2.2,19.2,0.0
2020-4-26,21,13.9,5.7,6.6,4.4,2.3,91,57.8,25,1011.8,1009.3,5,1.6,13,0.0
2020-4-27,24.3,16,6.8,12.3,8.2,3.4,88,65.5,43,1010.7,1004.3,6.1,2,15.8,0.4
2020-4-28,19,15.1,10.5,12.3,10.1,7.7,92,77.1,50,1007.0,1004.5,5,2.3,18,1.1
2020-4-29,16.3,12.3,9.9,11.5,9.1,7.3,92,84.7,61,1008.3,1004.3,5,2.3,23,4.1
2020-4-30,14.7,10.8,8.6,9.9,7.6,5.8,92,84.7,65,1004.2,999.9,6.1,3.1,23,6.1
2020-5-1,17.1,11.9,8,11.2,7.7,4.8,95,80.5,55,1009.0,1002.5,6.1,3,15.8,7.2
2020-5-2,17.1,11.4,5.4,8,5.5,3.7,93,72.6,46,1016.1,1009.0,4,1.5,11.1,0.0
2020-5-3,20.2,13.4,8.4,14,9.9,5.5,91,83.7,70,1017.1,1015.2,5,1.2,15.1,0.3
2020-5-4,20,15.2,10.6,12.4,10.6,9,94,78.8,60,1017.5,1015.3,5,2.6,14,0.0
2020-5-5,14.8,12.7,10.3,10.6,8.5,6.5,91,80.1,69,1019.3,1012.9,6.1,2.8,23,4.8
2020-5-6,20.9,15.5,10,9.7,6.6,2.8,89,60.6,31,1024.1,1019.2,6.1,2.1,20.1,0.0
2020-5-7,22.1,14.8,5.4,7.6,5.2,3,92,57.4,31,1024.2,1019.2,5,1.9,15.1,0.0
2020-5-8,23.8,16.3,6.8,13,8.6,5,93,66.2,35,1019.6,1013.6,6.1,1.8,14,0.1
2020-5-9,23.1,18.1,14.7,17.3,14.6,12.7,93,84.1,64,1013.7,1006.5,6.1,1.7,18,25.7
2020-5-10,21,16.7,13.4,17.4,14.6,11.8,95,90,79,1006.9,1002.3,15.1,5.6,24.1,16.2
2020-5-11,13.9,10.2,6.3,11.7,3.5,-0.3,93,68.7,42,1017.3,1004.5,14,8.1,46,8.0
2020-5-12,14.3,10.3,5.6,2.3,0.4,-1.5,70,53.7,41,1019.7,1014.3,7.9,4.3,28,0.0
2020-5-13,15.8,11.1,4.7,4.4,2.1,0.4,86,58.4,41,1014.7,1009.4,9,4.2,33.2,0.0
2020-5-14,15.2,11,5.8,2.8,1.3,-0.3,71,54.7,41,1017.0,1013.9,7.9,5.2,29.9,0.0
2020-5-15,17.7,12.5,6.4,4.1,2.3,-0.2,74,53.5,38,1022.8,1016.6,7.9,4.1,25.9,0.0
2020-5-16,19.5,13.2,4.3,6.6,4.6,2.2,91,60.9,38,1024.0,1021.7,6.1,2.5,15.8,0.2
2020-5-17,20.4,14.3,6.4,8.1,6.1,4.2,91,63,42,1025.9,1024.0,6.1,2.1,15.1,0.0
2020-5-18,23.4,16.1,7.8,11.4,7.8,5.8,92,63.3,36,1026.4,1024.1,6.1,2.3,14,0.0
2020-5-19,24.4,16.8,6.7,13,8.9,4.8,91,65.2,40,1025.3,1021.8,7.9,2.7,23,0.0
2020-5-20,27.5,20.2,11.5,14.6,12.3,9.5,91,65.9,44,1022.9,1019.2,7.9,2.6,15.8,0.0
2020-5-21,28.6,21.6,13.1,16.4,14.1,11.2,92,67.8,40,1021.0,1019.1,4,1,9,0.0
2020-5-22,26.5,20.2,15.8,16.4,14.1,11.8,89,73.1,51,1022.5,1017.9,4,1.5,14,0.7
2020-5-23,20.7,16.2,11.7,13.4,9.3,6.2,92,69.1,41,1031.0,1022.5,5,1.8,15.8,2.7
2020-5-24,20.3,15,9,10.7,8.4,5.8,89,70.4,53,1033.7,1031.1,4,1.6,15.8,0.0
2020-5-25,24,17.3,9.1,10.9,9.6,7.5,93,65.9,43,1034.3,1032.3,6.9,2.4,19.2,0.0
2020-5-26,25.2,19.1,10.4,11.7,9.8,8.3,91,59.3,34,1034.8,1032.4,7.9,2.9,20.9,0.0
2020-5-27,26,20.4,12.5,12.2,10.2,8.4,84,55.8,40,1033.7,1030.8,6.9,3,21.9,0.0
2020-5-28,24.4,19.8,13.5,11.3,8.2,6.1,67,49.5,32,1032.2,1026.1,7.9,4.3,33.8,0.0
2020-5-29,24.5,19.7,12.1,8.3,6.2,3.7,62,41.2,28,1026.6,1020.9,7.9,4.1,25.9,0.0
2020-5-30,24.8,18.7,9.3,9.7,7.8,5.7,86,52.5,34,1021.5,1017.8,9,2.9,28,0.0
2020-5-31,23.1,18.2,10.6,8.4,7.1,5.5,79,51.3,35,1019.6,1017.6,9,3.6,29.1,0.0
2020-6-1,26.6,19.5,10.2,11.5,9,6.5,85,54.4,34,1018.6,1016.9,7.9,3,24.1,0.0
2020-6-2,28.9,21.6,11.9,13.5,11.3,9.4,89,56.3,31,1018.0,1012.2,6.1,1.6,20.1,0.0
2020-6-3,26.7,21.5,14.7,13.1,11.8,10.6,83,57.9,39,1012.2,1000.4,6.9,2.6,20.9,0.0
2020-6-4,17.3,14.3,12.3,13.4,11.1,8.8,94,85,68,1003.0,999.7,5,2,15.1,16.0
2020-6-5,16.8,13.4,11,13,9.3,7.9,91,80.8,65,1003.0,998.6,5,2.7,25.9,1.5
2020-6-6,18.8,14.6,9.7,10.8,7.3,3.5,92,67.2,40,1006.4,1002.0,6.1,2.8,21.9,1.3
2020-6-7,18.9,13.3,7.7,10,7.5,3.5,89,73.5,53,1012.9,1006.1,4,1.7,11.1,0.0
2020-6-8,18.8,14.6,9.2,12.1,9.3,7.6,93,75.7,55,1018.4,1012.9,7.9,3.4,21.9,0.8
2020-6-9,18.8,14.7,11.2,8.6,7.6,6.5,84,67.5,46,1019.2,1017.2,5,2.3,14,0.0
2020-6-10,20,15.7,7.9,9.9,8.2,6.3,93,66.5,46,1018.0,1013.1,5,2.2,14,0.1
2020-6-11,23.4,16.8,11.1,13.2,10.1,8.5,92,70.6,42,1013.3,1004.5,7.9,3.1,28,2.8
2020-6-12,20.8,16.3,13.8,13.8,12.6,11.2,94,82.7,58,1005.7,1001.0,7.9,3.3,20.1,1.4
2020-6-13,23.4,18.5,11.7,12.9,11.3,10.1,92,68.4,47,1013.9,1005.8,6.1,2.9,18,0.0
2020-6-14,21.8,17,12.4,14.7,12,10.4,92,77.7,62,1017.5,1014.0,6.1,2,19.2,0.0
2020-6-15,21.9,17,12.4,15,12.5,11,93,79.7,55,1018.5,1017.3,6.9,2.2,19.2,2.9
2020-6-16,22.4,17.5,13.6,13.9,12.6,11.3,94,78.3,54,1017.9,1013.0,6.9,2.4,20.1,0.0
2020-6-17,20.7,16.7,12.5,13.2,11.8,10.8,93,78.1,57,1014.2,1011.3,5,1.5,15.1,0.0
2020-6-18,21.1,17,12.6,12.7,11.7,10.5,90,76.4,58,1014.7,1011.1,5,2.5,15.8,0.0
2020-6-19,19.8,16.1,11.2,15.3,12,9.7,94,81.1,62,1020.5,1014.8,6.1,1.9,14,3.4
2020-6-20,24,19,13.5,14.4,12.2,11.1,93,69.9,49,1021.7,1020.1,5,1.3,13,0.0
2020-6-21,22.3,17.2,12.6,17.1,13.4,10.6,92,82.5,69,1024.8,1020.1,6.1,2.1,24.1,2.9
2020-6-22,24.4,18.1,10.7,13.5,11.1,9.1,95,69.4,41,1027.6,1024.4,9,3.1,15.8,0.0
2020-6-23,29.3,21.5,11.5,13.8,12,9.7,92,59.9,32,1025.1,1020.1,6.9,2.6,27,0.0
2020-6-24,31.9,24.7,14.6,15.7,13.7,11.6,88,53.8,31,1020.4,1015.9,7.9,2.9,25.9,0.0
2020-6-25,33.7,26.5,20.3,20.5,14.9,10,90,51.6,37,1017.1,1011.1,6.1,2.6,14,2.1
2020-6-26,30.9,23.5,18.7,22.2,18,16.6,92,76.5,44,1013.1,1009.5,6.1,2.2,20.9,2.8
2020-6-27,22.9,20,17.4,17.8,15.6,13.3,89,80.2,69,1012.8,1010.4,7.9,3.4,32,0.6
2020-6-28,22.8,19,15.8,13.1,11.5,9.9,82,66.7,45,1016.4,1012.8,6.9,3.1,24.8,0.0
2020-6-29,22.2,18.7,13.5,13,9.7,7.8,85,60.6,42,1016.5,1014.0,5,2.1,21.9,0.0
2020-6-30,22,18.7,14.1,14.7,12.1,7.9,79,70.2,62,1014.8,1010.7,6.1,2.7,20.1,0.0
2020-7-1,23.9,20.5,17.8,18.2,15.7,12.6,90,78.5,64,1011.3,1009.0,5,2.6,20.1,2.2
2020-7-2,22.6,18.6,15.1,13.6,11.6,10,87,69.1,50,1018.2,1011.4,5,1.9,18,0.0
2020-7-3,22.8,18,11.3,12.1,10.4,9.1,90,66.6,48,1021.0,1018.5,5,1.6,13,0.0
2020-7-4,23.9,19,13.6,15.8,12.9,9.2,82,73,63,1020.4,1017.8,7.9,3.1,24.8,0.0
2020-7-5,24.7,20.9,18.3,17.7,16.2,12.4,90,79.1,67,1018.6,1016.2,6.1,2.9,21.9,0.0
2020-7-6,22.1,17.4,11.1,12.4,8.7,7.1,88,61.6,42,1024.1,1018.1,4,2.1,19.2,0.0
2020-7-7,24.8,17.7,8.6,10.7,8.7,6.6,91,60.5,36,1024.1,1018.7,4,1.4,13,0.0
2020-7-8,28.4,21.1,11.4,16.2,12.8,9.1,90,64.2,45,1020.0,1016.8,5,1.7,20.1,0.0
2020-7-9,31.5,23.8,14.9,17,14.8,12.2,92,62.4,35,1018.0,1012.1,5,2,18,0.0
2020-7-10,23.5,19.8,15.9,15,12.1,7.2,86,65.8,41,1022.1,1013.3,5,2,18,0.0
2020-7-11,23.7,17.3,9.2,10.6,8.1,6.6,89,59.6,35,1026.6,1022.2,6.1,2.1,19.2,0.0
2020-7-12,25.3,20,13.1,11.5,9,6.5,75,52,35,1027.1,1023.7,6.1,3.5,20.1,0.0
2020-7-13,27.1,21.3,12.8,11.4,9.5,7.8,79,49.6,29,1024.7,1019.9,6.1,2.2,15.1,0.0
2020-7-14,22.7,19.4,14.2,14.8,11.2,8.1,78,63.5,50,1020.5,1015.2,4,1.4,13,0.3
2020-7-15,23.1,19.4,16.6,13.4,12,10.4,85,67,51,1019.0,1014.7,4,1.4,11.9,0.0
2020-7-16,21,18.6,15.7,14.1,13.1,11.5,89,75,68,1022.2,1019.0,4,1.5,11.9,0.0
2020-7-17,26.1,20.6,14.8,15.4,13.1,11.9,88,67.2,47,1022.5,1020.1,6.1,1.6,14,0.0
2020-7-18,28.7,21.4,14.6,15.6,13.5,11.1,91,65.9,35,1021.3,1016.8,5,1.5,14,0.0
2020-7-19,30.2,22.5,14,16.6,13.6,11.9,91,62.2,34,1018.3,1014.5,4,1.5,13,0.0
2020-7-20,25.7,21,17.2,13.9,12.3,7.9,84,62.2,38,1022.1,1017.0,6.9,3.6,24.1,0.0
2020-7-21,25.6,21.5,14.8,10.2,8.6,6.8,70,44.2,29,1024.0,1021.7,6.9,4.7,24.1,0.0
2020-7-22,25.5,21.4,14.7,10.9,9,7.2,67,46.2,31,1024.6,1020.1,6.9,3.6,20.9,0.0
2020-7-23,27.9,22.9,12.7,11.3,9.9,7.6,81,44.9,28,1020.9,1014.1,5,1.8,11.9,0.0
2020-7-24,26,21.4,17.2,14.5,12.3,8.8,75,60,48,1016.0,1014.7,4,1.4,13,0.0
2020-7-25,26,20.9,14.8,15.8,13.7,12,88,68.8,48,1015.0,1010.3,6.9,2.1,20.1,0.2
2020-7-26,25.4,20.6,15.6,16.1,13.5,10.7,92,69.1,44,1016.9,1010.2,6.1,2.8,18,3.8
2020-7-27,31.5,22.8,13.4,15.6,12.7,11.1,89,57.4,22,1016.8,1009.2,7.9,2.9,25.9,0.0
2020-7-28,24.6,21.7,17.6,16,12.3,9.1,81,59.2,42,1020.2,1011.5,5,2.2,19.2,0.0
2020-7-29,26,19.1,10.7,12,9.8,8.3,89,59.4,36,1021.8,1018.8,5,1.5,11.9,0.0
2020-7-30,32.2,23,12.4,13.6,11.2,8.8,87,50.4,24,1019.9,1014.8,6.1,2.1,20.1,0.0
2020-7-31,30.1,19.8,16.2,15.8,10.4,9,71,58.7,40,1015.5,1013.2,5,0.9,11.9,0.0
2020-8-1,28.4,23.8,19.2,17.9,16.2,12.9,86,67.1,55,1017.7,1014.5,5,1.6,13,0.0
2020-8-2,24.7,20.7,16.5,13.5,11.4,8.3,81,59.5,43,1019.1,1016.7,5,1.9,24.1,0.0
2020-8-3,24.1,18.3,13.1,11.7,9.8,8.3,83,62.7,40,1017.5,1013.9,5,1.9,25.9,0.0
2020-8-4,25.5,18.9,11,11.8,9.7,7.5,90,59.6,36,1019.0,1016.7,4,1.6,11.1,0.0
2020-8-5,30.3,21.6,11.3,12.4,9.5,6.7,79,48.6,26,1017.3,1014.3,5,1.8,13,0.0
2020-8-6,33.9,24.5,13.5,15.3,11.8,8.2,78,47,25,1018.0,1015.8,5,1.7,13,0.0
2020-8-7,35.9,26.9,15.7,17.4,14.1,10.6,79,47.1,24,1018.8,1016.1,6.1,1.9,18,0.0
2020-8-8,37,27.5,17.7,18.5,15.5,12.5,79,50.7,24,1018.7,1016.1,6.1,1.6,14,0.0
2020-8-9,37.2,29.3,20.6,20.5,17,14.8,78,49.9,29,1016.5,1011.5,6.1,2.3,27,0.0
2020-8-10,33.9,28.1,21.4,18.4,16.7,15.1,78,52.8,37,1016.3,1011.4,5,2.1,14,0.0
2020-8-11,35.7,25.3,20.2,20.2,17.9,15.6,92,69.2,36,1016.5,1013.1,11.1,1.7,32,33.4
2020-8-12,34.2,24.9,19.1,22.6,19.4,17.7,94,77,40,1014.5,1009.5,11.9,3.8,24.8,10.0
2020-8-13,26.5,22,18.7,20.6,18.2,16.4,93,82.8,59,1013.7,1011.2,15.8,5.7,29.1,16.4
2020-8-14,26.1,21.4,18.4,18.8,17.7,16.8,93,83.4,61,1015.9,1013.2,5,2,18,1.7
2020-8-15,27.3,21.8,17.5,18.5,16.6,15.1,92,77.3,52,1016.0,1012.4,4,1.3,7.9,0.0
2020-8-16,26,21,18.2,19.7,16.3,13.8,92,79.3,55,1012.4,1009.2,6.1,1.4,13,5.6
2020-8-17,23.1,19.1,16.4,17.9,15.1,13.9,91,82.2,65,1012.4,1009.8,6.1,1.9,20.1,6.3
2020-8-18,25.7,20.1,15,15.9,14.2,13.1,92,74.1,50,1012.9,1010.6,5,1.5,13,0.0
2020-8-19,24.9,20.3,16.1,19.1,16.8,14.5,93,84.2,67,1012.0,1004.8,6.1,1.6,15.1,0.6
2020-8-20,30.7,24.3,18.8,19.7,18.2,16.9,92,73.9,50,1006.0,1004.9,5,1.6,15.1,0.0
2020-8-21,28.1,23.9,19.5,18.3,15.6,11.8,90,64.6,41,1014.8,1005.3,6.9,2.7,24.1,2.3
2020-8-22,25.5,21,16.2,15.2,13.4,11.3,88,66.6,49,1019.0,1014.9,6.1,2.4,19.2,0.0
2020-8-23,23,18.7,13.8,14.1,12.1,9.3,92,70.8,48,1021.4,1018.9,4,1.5,15.1,0.7
2020-8-24,22.3,17,11.4,13,11.1,8.9,90,73.4,56,1020.3,1016.2,4,1.2,14,0.0
2020-8-25,28.2,20.3,13.8,16.7,13.6,11.5,90,70.9,42,1016.3,1006.6,6.9,3,28,0.5
2020-8-26,24.4,19.9,16.1,13.8,12.1,10.6,82,65.8,46,1020.7,1010.8,5,2.6,29.1,0.0
2020-8-27,25.7,18.8,12.2,17,12.6,10.1,91,72.9,43,1020.5,1008.0,6.1,2.4,29.9,0.3
2020-8-28,22,17.1,13.1,15.6,12.5,10.2,90,79.2,51,1008.3,1001.7,6.1,2,21.9,1.4
2020-8-29,19.4,14.8,11.5,13.8,11.5,9.9,93,84.5,68,1009.9,1003.6,5,1.6,16.9,3.1
2020-8-30,20.7,15.8,11.6,15.9,12.6,9.8,93,85.3,70,1018.4,1009.5,6.1,2.2,25.9,2.4
2020-8-31,20.1,15.6,11.6,11.9,9.7,7.7,93,73.3,49,1021.0,1018.4,4,1.3,11.1,0.0
2020-9-1,21.4,15.1,7.8,11.3,8.5,6.3,93,70.5,46,1020.3,1017.2,6.1,1.8,14,0.0
2020-9-2,21.9,15.7,8.6,11.2,8.6,6.8,92,68.4,42,1020.7,1018.4,5,1.2,14,0.0
2020-9-3,27.3,20.6,13.9,15.2,12.1,9.4,84,63.5,42,1022.0,1019.6,5,1.6,14,0.0
2020-9-4,29.1,22.1,15.7,16.4,13.8,11.1,88,64.5,33,1023.3,1019.4,4,1.3,15.8,0.0
2020-9-5,20.8,17.7,13.1,15.4,11.1,7.5,89,70.1,46,1022.7,1019.8,4,1.5,16.9,0.0
2020-9-6,20,14.1,9.4,12.1,9.1,7.1,91,76.8,52,1022.8,1020.6,4,1.1,11.1,0.7
2020-9-7,22.7,15.9,8.5,12.6,9.3,7.1,94,70.4,43,1026.6,1022.8,6.9,2.1,14,0.0
2020-9-8,25.5,18.3,11.5,15.6,12.6,9.3,91,74.6,54,1028.3,1025.3,4,1,11.1,0.0
2020-9-9,27.5,22.1,17.4,17.1,14.8,11.5,90,68.7,35,1026.1,1021.4,7.9,1.1,16.9,0.0
2020-9-10,26,20.7,16.1,16.8,15,12.4,91,74.8,49,1023.2,1017.7,5,1.6,11.9,0.0
2020-9-11,26.8,20,14.2,15.9,14,12.2,91,73.5,51,1018.3,1015.7,4,1.1,18,0.0
2020-9-12,22.7,17.4,12,12.6,11.3,10,92,72.8,51,1024.6,1017.9,4,1.3,11.9,0.0
2020-9-13,26.9,17.6,9.6,13.1,10.5,8,93,69,37,1026.5,1023.2,4,1.1,11.9,0.0
2020-9-14,32.9,20.5,10.3,16.6,12.3,8.2,91,65.1,32,1024.0,1018.2,4,1.2,11.1,0.0
2020-9-15,33,23.1,14.2,17.3,13.9,11.4,89,61.2,33,1019.5,1017.1,4,1.1,11.9,0.0
2020-9-16,30.2,23,15.4,17.8,15.4,12.5,91,67.7,45,1021.5,1018.3,5,1.1,16.9,0.0
2020-9-17,25.6,21.9,17.9,14.1,12,6.8,82,57.3,36,1023.8,1020.4,7.9,5.5,28,0.0
2020-9-18,27.4,21.5,15.3,15.3,11.3,6.9,65,55.8,47,1020.4,1013.9,7.9,4.1,23,0.0
2020-9-19,28.2,22.5,18.2,19.2,15.8,13.6,92,70.9,50,1014.0,1011.6,6.9,2.2,20.1,7.3
2020-9-20,25.7,20.1,15.5,18.1,16.1,14.3,94,82.3,60,1015.9,1013.0,5,1.9,11.9,0.0
2020-9-21,25.7,18.4,12,15.2,11,8.9,90,67.3,36,1016.0,1013.9,5,1.2,11.1,0.0
2020-9-22,25.2,17.2,8.6,14.6,10.2,6.7,92,69.1,37,1014.6,1008.3,4,1,13,0.0
2020-9-23,21.9,17.8,14.9,17,14.4,12.9,92,84.5,67,1009.3,1002.5,6.9,2.5,21.9,7.8
2020-9-24,17.4,13,10.1,13.8,10.7,7.9,93,89.1,75,1006.9,998.2,6.1,2.4,21.9,5.3
2020-9-25,14.6,11.1,8.8,9.4,7.1,5.2,93,81,62,1008.8,997.2,6.1,3,29.1,2.1
2020-9-26,15.2,11.2,7.8,8.6,5.6,3.1,92,74.3,47,1009.0,1007.6,6.1,2.4,25.9,0.3
2020-9-27,13.6,11.4,9.8,11.8,10,8.5,95,93.1,91,1009.7,1003.3,5,2.8,32,8.4
2020-9-28,13.2,12.3,11.8,12.2,11.3,10.8,95,94.9,94,1012.8,1009.4,4,2.3,16.9,6.3